Hlavní strana
METAR-TAF:

METAR-TAF

Letiště :

Urgench, Uzbekistán

zeměpisná šířka: 41-35N, zeměpisná délka: 060-38-42E, výška: 98 m

Aktuální stav počasí

Zpráva byla vytvořena před 42 minutami, v 04:00 UTC
Severovýchodní vítr 10 kt
Teplota 13°C
Vlhkost vzduchu 62%
Tlak 1022 hPa
Viditelnost 10 km a více
Žádná oblačnost pod 1500 m, nevyskytují se cumulonimby.

METAR: UTNU 050400Z 05010KT CAVOK 13/06 Q1022 R31/CLRD70 NOSIG

Čas: 09:42 (04:42 UTC)

Předpověď počasí

Zpráva byla vytvořena před 5 hodinami a 42 minutami, v 23:00 UTC
Předpověď platná od 05 v 00 UTC do 05 v 24 UTC
Severoseverovýchodní vítr 10 kt s nárazy do 20 kt
Viditelnost: 7000 m

TAF: UTNU 042300Z 0500/0524 03010G20KT 7000 NSC

Stav a předpovědi počasí z více než 4 000 letišť (zprávy METAR a TAF).

Červené a žluté tečky na mapě představují dostupné meteorologické stanice.

Když kurzor umístíte na tečku, zobrazí se název stanice.

Pak kliknutím zobrazíte stav a předpověď počasí.

Chcete-li změnit mapu, kliknutím na zelené tlačítko se znaménkem +mapu přiblížíte, kliknutím na zelené tlačítko se znaménkem – mapu oddálíte a kliknutím na zelené šipky přejdete na sousední mapy.


METAR-TAF: